Time;durP1;ratioP1;P1;durP2;ratioP2;P2;SDS_P1;SDS_P2;PMS_P1;PMS_P2;Temp;Humidity;BMP_temperature;BMP_pressure;BME280_temperature;BME280_humidity;BME280_pressure;Samples;Min_cycle;Max_cycle;Signal;HPM_P1;HPM_P2
2022/11/07 00:01:57;;;;;;;22.15;14.05;;;;;;;2.59;67.36;100584.31;5052316;28;20104;-56
2022/11/07 00:04:22;;;;;;;20.15;13.32;;;;;;;2.58;67.65;100583.47;5052366;28;20029;-54
2022/11/07 00:06:48;;;;;;;19.60;13.27;;;;;;;2.57;67.32;100572.94;5053716;28;20466;-52
2022/11/07 00:09:13;;;;;;;20.92;14.02;;;;;;;2.55;66.75;100558.91;5053013;28;20032;-58
2022/11/07 00:11:39;;;;;;;18.73;13.05;;;;;;;2.57;67.16;100565.88;5036424;28;20038;-54
2022/11/07 00:14:04;;;;;;;20.20;13.35;;;;;;;2.61;67.23;100563.97;5033523;28;20099;-56
2022/11/07 00:16:31;;;;;;;21.00;13.48;;;;;;;2.65;67.14;100567.38;5038132;28;20017;-54
2022/11/07 00:18:56;;;;;;;19.92;13.20;;;;;;;2.65;67.06;100564.75;5053041;28;20414;-51
2022/11/07 00:21:22;;;;;;;20.13;13.48;;;;;;;2.63;67.55;100562.13;5053023;28;20033;-56
2022/11/07 00:23:47;;;;;;;20.02;13.40;;;;;;;2.66;67.32;100555.91;5052335;28;20025;-54
2022/11/07 00:26:13;;;;;;;19.90;13.43;;;;;;;2.66;67.46;100567.34;5053294;28;20124;-52
2022/11/07 00:28:41;;;;;;;21.05;13.80;;;;;;;2.51;67.05;100541.44;5042400;28;20029;-51
2022/11/07 00:31:08;;;;;;;23.88;14.10;;;;;;;2.61;67.57;100553.41;5045875;28;20120;-50
2022/11/07 00:33:34;;;;;;;19.80;13.27;;;;;;;2.62;67.48;100556.94;5053124;28;20428;-51
2022/11/07 00:35:59;;;;;;;20.27;13.30;;;;;;;2.57;67.31;100550.03;5047037;28;20060;-51
2022/11/07 00:38:25;;;;;;;22.00;13.43;;;;;;;2.64;67.22;100558.56;5033219;28;20034;-52
2022/11/07 00:40:55;;;;;;;21.52;13.77;;;;;;;2.63;67.44;100550.72;5033201;28;20061;-52
2022/11/07 00:43:21;;;;;;;20.83;14.02;;;;;;;2.61;67.42;100556.06;5032918;28;20439;-54
2022/11/07 00:45:46;;;;;;;21.48;14.32;;;;;;;2.60;68.02;100543.75;5033067;28;20048;-53
2022/11/07 00:48:12;;;;;;;20.55;13.52;;;;;;;2.66;67.82;100545.31;5033209;28;20045;-53
2022/11/07 00:50:37;;;;;;;20.73;14.55;;;;;;;2.67;67.92;100533.81;5040415;28;20028;-55
2022/11/07 00:53:02;;;;;;;19.42;13.77;;;;;;;2.72;67.79;100535.38;5053010;28;20420;-54
2022/11/07 00:55:28;;;;;;;19.73;13.32;;;;;;;2.73;67.82;100529.19;5045413;28;20037;-54
2022/11/07 00:57:54;;;;;;;21.48;14.30;;;;;;;2.71;67.94;100535.44;5032570;28;20061;-55
2022/11/07 01:00:20;;;;;;;21.05;13.43;;;;;;;2.71;68.50;100531.03;5032744;28;20128;-53
2022/11/07 01:05:09;;;;;;;22.00;15.13;;;;;;;2.73;67.92;100526.53;5049651;28;20623;-52
2022/11/07 01:05:30;;;;;;;22.48;14.07;;;;;;;2.76;68.21;100525.53;5052693;28;20352;-54
2022/11/07 01:07:56;;;;;;;25.60;15.48;;;;;;;2.74;68.00;100524.75;5052578;28;20098;-52
2022/11/07 01:10:21;;;;;;;22.98;14.27;;;;;;;2.75;68.35;100523.81;5041403;28;20037;-55
2022/11/07 01:12:47;;;;;;;20.13;13.68;;;;;;;2.76;68.08;100519.41;5032960;28;20033;-57
2022/11/07 01:15:12;;;;;;;22.42;14.57;;;;;;;2.66;68.29;100501.25;5042232;28;20037;-53
2022/11/07 01:17:37;;;;;;;21.25;14.52;;;;;;;2.67;68.29;100505.63;5052241;28;20040;-53
2022/11/07 01:20:03;;;;;;;20.20;13.63;;;;;;;2.72;68.42;100519.53;5052335;28;20040;-50
2022/11/07 01:22:29;;;;;;;22.55;14.35;;;;;;;2.75;68.60;100518.53;5052578;28;20021;-56
2022/11/07 01:24:54;;;;;;;23.05;13.65;;;;;;;2.77;68.26;100510.56;5052142;28;20033;-53
2022/11/07 01:27:20;;;;;;;22.17;14.05;;;;;;;2.77;68.47;100502.63;5051948;28;20033;-56
2022/11/07 01:29:45;;;;;;;22.23;13.30;;;;;;;2.76;67.88;100499.09;5034110;28;20041;-54
2022/11/07 01:32:10;;;;;;;21.40;13.63;;;;;;;2.76;68.25;100492.97;5032090;28;20127;-55
2022/11/07 01:34:36;;;;;;;23.83;14.00;;;;;;;2.78;69.03;100502.56;5040911;28;20099;-54
2022/11/07 01:37:01;;;;;;;22.27;13.85;;;;;;;2.81;68.96;100493.66;5052357;28;20026;-54
2022/11/07 01:39:27;;;;;;;22.25;14.10;;;;;;;2.84;68.38;100490.88;5052141;28;20029;-55
2022/11/07 01:41:52;;;;;;;19.85;13.45;;;;;;;2.85;69.05;100487.31;5052238;28;20044;-56
2022/11/07 01:44:18;;;;;;;20.35;13.57;;;;;;;2.87;68.32;100491.63;5052349;28;20384;-54
2022/11/07 01:46:45;;;;;;;21.63;14.07;;;;;;;2.86;68.60;100492.56;5052293;28;20052;-54
2022/11/07 01:49:13;;;;;;;20.52;13.40;;;;;;;2.88;68.98;100492.47;5037756;28;20499;-54
2022/11/07 01:51:46;;;;;;;20.65;14.13;;;;;;;2.90;68.35;100489.78;5031998;28;20928;-54
2022/11/07 01:54:13;;;;;;;20.67;13.18;;;;;;;2.84;69.11;100489.13;5046191;28;20029;-55
2022/11/07 01:56:42;;;;;;;20.20;13.57;;;;;;;2.86;69.00;100496.97;5052312;28;20108;-54
2022/11/07 01:59:11;;;;;;;23.60;14.13;;;;;;;2.86;69.35;100486.41;5030056;28;20437;-51
2022/11/07 02:01:37;;;;;;;20.98;13.60;;;;;;;2.85;69.17;100493.47;5032167;28;20030;-55
2022/11/07 02:04:03;;;;;;;20.88;14.00;;;;;;;2.90;68.91;100489.78;5032261;28;20047;-55
2022/11/07 02:06:39;;;;;;;20.13;13.10;;;;;;;2.72;69.01;100440.19;5030895;28;20411;-53
2022/11/07 02:09:05;;;;;;;19.77;13.30;;;;;;;2.94;68.95;100479.03;5033930;28;20025;-53
2022/11/07 02:11:31;;;;;;;20.38;13.55;;;;;;;2.96;69.10;100484.25;5051915;28;20120;-54
2022/11/07 02:13:57;;;;;;;20.85;13.25;;;;;;;2.94;68.91;100470.22;5051889;28;20028;-55
2022/11/07 02:16:22;;;;;;;20.55;13.98;;;;;;;2.97;69.13;100478.03;5051986;28;20029;-53
2022/11/07 02:18:48;;;;;;;21.85;14.60;;;;;;;2.96;69.64;100479.84;5038971;28;20029;-55
2022/11/07 02:21:47;;;;;;;19.42;12.77;;;;;;;3.09;68.92;100476.72;5032391;28;20459;-52
2022/11/07 02:24:23;;;;;;;19.75;12.88;;;;;;;3.05;69.23;100475.13;5032033;28;20056;-54
2022/11/07 02:26:49;;;;;;;;;;;;;;;3.29;68.88;100474.16;5032662;28;20120;-54
2022/11/07 02:29:14;;;;;;;;;;;;;;;3.40;67.40;100463.13;5032482;28;19963;-54
2022/11/07 02:31:40;;;;;;;18.67;11.60;;;;;;;3.21;68.11;100473.59;5048576;28;19917;-50
2022/11/07 02:34:05;;;;;;;21.00;12.23;;;;;;;3.12;68.94;100469.53;5055469;28;20086;-51
2022/11/07 02:36:31;;;;;;;18.00;12.13;;;;;;;3.03;68.17;100447.84;5055543;28;20033;-52
2022/11/07 02:38:58;;;;;;;19.02;12.75;;;;;;;3.09;68.68;100468.78;5040125;28;20037;-53
2022/11/07 02:41:33;;;;;;;18.85;12.45;;;;;;;3.13;69.08;100457.13;5035373;28;20091;-55
2022/11/07 02:44:05;;;;;;;;;;;;;;;3.35;68.18;100462.47;5048397;28;20049;-55
2022/11/07 02:46:32;;;;;;;17.02;11.45;;;;;;;3.18;68.53;100459.63;5035415;28;20015;-55
2022/11/07 02:48:59;;;;;;;18.70;12.25;;;;;;;3.15;68.81;100456.16;5035466;28;20029;-50
2022/11/07 02:51:25;;;;;;;17.73;11.52;;;;;;;3.08;69.22;100451.19;5035325;28;20033;-49
2022/11/07 02:53:51;;;;;;;17.40;12.07;;;;;;;3.13;68.79;100463.31;5035433;28;20025;-51
2022/11/07 02:56:17;;;;;;;19.20;11.98;;;;;;;3.13;68.35;100462.44;5035221;28;20029;-51
2022/11/07 02:58:43;;;;;;;19.08;13.10;;;;;;;3.13;68.99;100457.13;5048886;28;20510;-49
2022/11/07 03:01:08;;;;;;;18.02;11.90;;;;;;;3.10;68.89;100455.50;5039789;28;20037;-51
2022/11/07 03:03:37;;;;;;;15.95;11.05;;;;;;;3.15;69.16;100461.47;5034935;28;20041;-53
2022/11/07 03:06:04;;;;;;;15.45;10.73;;;;;;;3.20;69.18;100461.28;5033938;28;20091;-54
2022/11/07 03:08:29;;;;;;;18.10;11.40;;;;;;;3.20;68.71;100449.81;5046210;28;20041;-51
2022/11/07 03:10:55;;;;;;;16.30;11.13;;;;;;;3.25;68.95;100450.50;5054914;28;20032;-54
2022/11/07 03:13:21;;;;;;;16.67;11.00;;;;;;;3.15;68.79;100426.22;5054950;28;20040;-50
2022/11/07 03:15:46;;;;;;;16.45;11.30;;;;;;;3.24;68.89;100444.34;5036450;28;20037;-53
2022/11/07 03:18:12;;;;;;;16.40;11.00;;;;;;;3.30;68.57;100446.75;5044704;28;20037;-52
2022/11/07 03:20:37;;;;;;;16.35;11.10;;;;;;;3.32;68.66;100441.41;5054415;28;20029;-54
2022/11/07 03:23:02;;;;;;;16.35;11.57;;;;;;;3.36;68.99;100447.41;5054435;28;20036;-53
2022/11/07 03:25:28;;;;;;;16.67;11.27;;;;;;;3.39;68.71;100447.31;5054238;28;20075;-54
2022/11/07 03:27:53;;;;;;;17.63;11.85;;;;;;;3.27;67.99;100416.94;5054659;28;20033;-53
2022/11/07 03:30:19;;;;;;;17.80;10.90;;;;;;;3.42;68.06;100434.81;5052955;28;20324;-50
2022/11/07 03:32:44;;;;;;;16.17;11.18;;;;;;;3.43;68.13;100425.09;5054155;28;20044;-53
2022/11/07 03:35:10;;;;;;;16.52;11.45;;;;;;;3.29;68.14;100407.13;5054412;28;20037;-55
2022/11/07 03:37:36;;;;;;;17.45;11.55;;;;;;;3.43;67.96;100431.22;5048112;28;20029;-52
2022/11/07 03:40:02;;;;;;;20.13;11.43;;;;;;;3.39;68.15;100421.69;5034229;28;20409;-52
2022/11/07 03:42:28;;;;;;;16.52;11.48;;;;;;;3.46;68.14;100435.56;5034614;28;20029;-53
2022/11/07 03:44:54;;;;;;;18.88;11.07;;;;;;;3.47;68.51;100431.97;5033290;28;20049;-55
2022/11/07 03:47:19;;;;;;;17.50;11.98;;;;;;;3.48;68.12;100441.63;5034023;28;20183;-54
2022/11/07 03:49:45;;;;;;;16.90;10.90;;;;;;;3.50;67.75;100433.66;5034120;28;20022;-53
2022/11/07 03:52:10;;;;;;;18.63;11.90;;;;;;;3.49;68.11;100439.84;5033946;28;20040;-53
2022/11/07 03:54:36;;;;;;;16.85;11.43;;;;;;;3.45;67.54;100433.84;5034030;28;20088;-55
2022/11/07 03:57:01;;;;;;;20.20;11.40;;;;;;;3.44;67.95;100438.25;5050150;28;20025;-51
2022/11/07 03:59:26;;;;;;;16.75;11.10;;;;;;;3.47;67.70;100436.41;5034134;28;20518;-55
2022/11/07 04:01:52;;;;;;;17.20;11.82;;;;;;;3.39;67.80;100431.44;5033923;28;20025;-54
2022/11/07 04:04:17;;;;;;;18.20;11.48;;;;;;;3.42;68.29;100439.25;5033430;28;20064;-54
2022/11/07 04:06:43;;;;;;;19.25;11.32;;;;;;;3.40;68.03;100436.66;5033931;28;20428;-51
2022/11/07 04:09:08;;;;;;;16.90;11.25;;;;;;;3.21;68.19;100407.44;5034842;28;20104;-55
2022/11/07 04:17:17;;;;;;;20.52;12.00;;;;;;;3.36;68.30;100442.13;5035758;28;20075;-52
2022/11/07 04:19:43;;;;;;;19.17;11.20;;;;;;;3.34;68.52;100441.34;5052770;28;20041;-56
2022/11/07 04:22:09;;;;;;;18.75;11.57;;;;;;;3.27;68.84;100441.59;5032475;28;20033;-53
2022/11/07 04:24:34;;;;;;;22.60;12.38;;;;;;;3.28;68.91;100443.31;5033757;28;20044;-50
2022/11/07 04:29:44;;;;;;;19.67;11.43;;;;;;;3.31;68.36;100437.03;5032990;28;20033;-54
2022/11/07 04:32:09;;;;;;;18.75;12.32;;;;;;;3.30;68.86;100440.63;5033491;28;20100;-54
2022/11/07 04:34:35;;;;;;;19.92;12.45;;;;;;;3.32;68.83;100448.47;5033386;28;20045;-53
2022/11/07 04:37:00;;;;;;;20.15;12.52;;;;;;;3.32;68.44;100454.66;5035864;28;20032;-55
2022/11/07 04:39:26;;;;;;;18.15;11.85;;;;;;;3.26;68.53;100433.72;5053417;28;20029;-50
2022/11/07 04:41:51;;;;;;;21.27;12.98;;;;;;;3.28;68.58;100438.00;5053827;28;20036;-53
2022/11/07 04:44:16;;;;;;;22.60;12.18;;;;;;;3.30;68.68;100444.09;5052001;28;20079;-58
2022/11/07 04:46:42;;;;;;;17.98;11.70;;;;;;;3.29;68.43;100438.91;5037534;28;20037;-58
2022/11/07 04:49:07;;;;;;;18.65;11.90;;;;;;;3.27;68.65;100436.28;5038024;28;20036;-66
2022/11/07 04:51:33;;;;;;;17.92;11.15;;;;;;;3.31;68.78;100444.97;5047912;28;20203;-61
2022/11/07 04:53:58;;;;;;;21.02;11.85;;;;;;;3.35;68.77;100451.00;5033340;28;20030;-59
2022/11/07 04:56:24;;;;;;;18.60;10.82;;;;;;;3.30;68.25;100441.47;5031837;28;20120;-58
2022/11/07 04:58:49;;;;;;;16.52;10.75;;;;;;;3.28;68.37;100438.00;5033363;28;20033;-58
2022/11/07 05:01:15;;;;;;;17.38;11.27;;;;;;;3.26;69.26;100431.94;5052734;28;20388;-60
2022/11/07 05:03:40;;;;;;;16.63;10.55;;;;;;;3.37;68.64;100433.25;5043040;28;20052;-61
2022/11/07 05:06:06;;;;;;;15.77;10.18;;;;;;;3.34;68.31;100425.44;5050822;28;20057;-62
2022/11/07 05:08:31;;;;;;;15.50;10.35;;;;;;;3.42;68.51;100433.97;5052784;28;20087;-64
2022/11/07 05:10:56;;;;;;;16.77;10.70;;;;;;;3.41;68.31;100425.13;5040804;28;20037;-63
2022/11/07 05:13:22;;;;;;;17.98;10.90;;;;;;;3.41;68.40;100426.94;5032947;28;20026;-62
2022/11/07 05:15:49;;;;;;;16.08;10.77;;;;;;;3.37;68.39;100420.03;5032368;28;20515;-63
2022/11/07 05:18:14;;;;;;;16.48;10.27;;;;;;;3.46;68.58;100427.59;5034635;28;20111;-62
2022/11/07 05:20:40;;;;;;;18.63;9.90;;;;;;;3.47;68.51;100426.69;5041535;28;20117;-69
2022/11/07 05:23:12;;;;;;;15.05;9.57;;;;;;;3.50;68.38;100436.28;5031331;28;20407;-63
2022/11/07 05:25:45;;;;;;;14.32;9.02;;;;;;;3.57;68.00;100435.09;5032745;28;20030;-63
2022/11/07 05:28:12;;;;;;;14.98;9.23;;;;;;;3.50;67.71;100431.84;5032491;28;20042;-63
2022/11/07 05:30:40;;;;;;;16.05;9.93;;;;;;;3.53;68.48;100436.16;5032210;28;20030;-64
2022/11/07 05:33:06;;;;;;;13.73;9.07;;;;;;;3.42;67.96;100418.91;5031364;28;20030;-63
2022/11/07 05:35:32;;;;;;;17.52;9.52;;;;;;;3.51;68.41;100440.66;5040580;28;20036;-63
2022/11/07 05:37:57;;;;;;;14.80;9.57;;;;;;;3.49;68.42;100435.41;5052196;28;20040;-64
2022/11/07 05:40:23;;;;;;;15.52;10.05;;;;;;;3.34;68.47;100409.56;5043436;28;20458;-64
2022/11/07 05:42:48;;;;;;;15.35;9.27;;;;;;;3.55;68.20;100437.81;5031365;28;20037;-63
2022/11/07 05:45:14;;;;;;;16.40;9.85;;;;;;;3.59;68.49;100447.34;5048804;28;20071;-64
2022/11/07 05:47:39;;;;;;;15.02;10.07;;;;;;;3.61;68.29;100438.47;5051459;28;20037;-62
2022/11/07 05:50:05;;;;;;;16.27;9.52;;;;;;;3.43;67.54;100399.47;5052191;28;20112;-63
2022/11/07 05:52:31;;;;;;;15.35;8.90;;;;;;;3.67;67.43;100430.28;5040207;28;20020;-62
2022/11/07 05:54:56;;;;;;;14.25;9.45;;;;;;;3.65;67.30;100433.00;5052192;28;20029;-63
2022/11/07 05:57:22;;;;;;;13.68;9.05;;;;;;;3.65;68.24;100437.44;5052044;28;20032;-62
2022/11/07 05:59:47;;;;;;;14.35;9.30;;;;;;;3.63;68.04;100439.28;5047692;28;20444;-63
2022/11/07 06:02:13;;;;;;;14.63;9.45;;;;;;;3.57;67.71;100421.88;5033274;28;20113;-63
2022/11/07 06:04:38;;;;;;;15.90;10.38;;;;;;;3.59;67.59;100428.81;5036170;28;20037;-62
2022/11/07 06:07:03;;;;;;;14.45;8.70;;;;;;;3.59;68.05;100431.44;5048016;28;20037;-62
2022/11/07 06:09:29;;;;;;;14.82;9.52;;;;;;;3.63;67.67;100436.66;5036145;28;20025;-64
2022/11/07 06:11:54;;;;;;;15.85;9.93;;;;;;;3.70;67.90;100438.94;5035055;28;20129;-64
2022/11/07 06:14:19;;;;;;;14.48;9.90;;;;;;;3.76;67.48;100445.78;5035704;28;20040;-63
2022/11/07 06:16:45;;;;;;;17.67;9.20;;;;;;;3.77;67.36;100434.25;5035674;28;20440;-62
2022/11/07 06:19:10;;;;;;;16.23;9.27;;;;;;;3.82;67.01;100439.38;5050047;28;20029;-62
2022/11/07 06:21:36;;;;;;;12.65;8.35;;;;;;;3.85;67.05;100442.72;5071277;28;20127;-63
2022/11/07 06:24:01;;;;;;;16.40;8.98;;;;;;;3.91;66.48;100449.56;5053943;28;20025;-62
2022/11/07 06:26:27;;;;;;;15.20;9.30;;;;;;;3.90;67.38;100445.19;5055473;28;20044;-62
2022/11/07 06:28:52;;;;;;;13.68;8.95;;;;;;;3.93;66.99;100450.34;5044080;28;20030;-63
2022/11/07 06:31:18;;;;;;;15.05;10.10;;;;;;;3.91;66.83;100454.00;5035589;28;20112;-63
2022/11/07 06:33:44;;;;;;;16.75;10.32;;;;;;;3.93;67.27;100449.50;5035377;28;20072;-64
2022/11/07 06:36:11;;;;;;;15.38;8.57;;;;;;;3.93;67.17;100453.00;5035050;28;20091;-63
2022/11/07 06:38:37;;;;;;;16.38;8.95;;;;;;;3.88;67.42;100437.31;5035719;28;20026;-62
2022/11/07 06:41:12;;;;;;;15.73;8.88;;;;;;;4.04;67.06;100441.94;5035807;28;20033;-64
2022/11/07 06:43:38;;;;;;;16.83;8.70;;;;;;;3.98;66.53;100426.31;5036818;28;20069;-62
2022/11/07 06:46:06;;;;;;;13.05;8.18;;;;;;;4.08;66.05;100438.22;5035232;28;20397;-64
2022/11/07 06:48:32;;;;;;;16.33;8.85;;;;;;;4.06;66.30;100437.44;5047046;28;20025;-63
2022/11/07 06:50:59;;;;;;;14.20;8.55;;;;;;;4.12;66.93;100438.97;5039063;28;20034;-66
2022/11/07 06:53:25;;;;;;;15.18;8.32;;;;;;;4.16;66.93;100436.13;5034990;28;20104;-63
2022/11/07 06:55:51;;;;;;;13.98;8.32;;;;;;;4.21;66.50;100433.25;5038241;28;20375;-61
2022/11/07 06:58:17;;;;;;;12.30;8.48;;;;;;;4.24;66.46;100427.84;5034870;28;20040;-62
2022/11/07 07:00:42;;;;;;;16.20;8.60;;;;;;;4.30;65.90;100422.25;5038200;28;20025;-62
2022/11/07 07:03:09;;;;;;;16.38;8.18;;;;;;;4.35;66.03;100431.78;5034909;28;20463;-61
2022/11/07 07:05:34;;;;;;;12.77;7.68;;;;;;;4.34;65.98;100422.09;5035326;28;20470;-63
2022/11/07 07:08:00;;;;;;;11.55;7.88;;;;;;;4.41;65.42;100428.84;5051764;28;20041;-66
2022/11/07 07:10:26;;;;;;;16.85;8.18;;;;;;;4.45;65.88;100426.00;5050716;28;20175;-66
2022/11/07 07:12:52;;;;;;;15.57;8.60;;;;;;;4.54;65.56;100427.38;5048570;28;20092;-66
2022/11/07 07:15:18;;;;;;;11.55;7.40;;;;;;;4.60;65.45;100428.88;5034170;28;20026;-65
2022/11/07 07:17:43;;;;;;;12.40;7.78;;;;;;;4.57;65.32;100418.38;5049408;28;20043;-62
2022/11/07 07:20:09;;;;;;;11.98;8.15;;;;;;;4.45;64.94;100396.81;5054198;28;20029;-60
2022/11/07 07:22:35;;;;;;;15.38;8.18;;;;;;;4.62;64.96;100429.66;5089972;28;20056;-64
2022/11/07 07:25:00;;;;;;;12.98;8.07;;;;;;;4.67;65.18;100419.69;5074619;28;20075;-66
2022/11/07 07:27:28;;;;;;;18.08;8.98;;;;;;;4.67;65.24;100417.06;5061705;28;20332;-66
2022/11/07 07:29:53;;;;;;;14.38;8.30;;;;;;;4.68;64.43;100415.25;5034258;28;20033;-65
2022/11/07 07:32:20;;;;;;;15.20;8.60;;;;;;;4.71;64.51;100429.22;5066178;28;20033;-64
2022/11/07 07:34:45;;;;;;;14.65;8.20;;;;;;;4.72;64.73;100432.75;5020302;28;20071;-64
2022/11/07 07:37:10;;;;;;;12.50;8.35;;;;;;;4.73;64.85;100437.13;5060939;28;20057;-65
2022/11/07 07:39:37;;;;;;;17.38;8.85;;;;;;;4.71;64.69;100429.22;5034144;28;20353;-65
2022/11/07 07:42:02;;;;;;;19.88;8.77;;;;;;;4.60;65.37;100423.59;5036202;28;20091;-64
2022/11/07 07:44:28;;;;;;;14.60;8.35;;;;;;;4.57;64.19;100415.75;5049074;28;20061;-65
2022/11/07 07:46:53;;;;;;;14.63;9.00;;;;;;;4.67;65.23;100432.09;5052403;28;20067;-66
2022/11/07 07:49:19;;;;;;;16.17;9.02;;;;;;;4.66;64.99;100430.38;5054218;28;20113;-63
2022/11/07 07:51:44;;;;;;;12.85;8.18;;;;;;;4.72;64.91;100428.31;5056720;28;20021;-67
2022/11/07 07:54:10;;;;;;;18.75;9.57;;;;;;;4.67;64.58;100425.00;5051153;28;20041;-76
2022/11/07 07:56:36;;;;;;;13.65;8.20;;;;;;;4.65;64.82;100432.19;5068707;28;20033;-70
2022/11/07 07:59:02;;;;;;;14.60;9.15;;;;;;;4.58;65.19;100420.09;5052152;28;20036;-73
2022/11/07 08:01:27;;;;;;;14.77;9.23;;;;;;;4.65;65.07;100432.19;5052353;28;20029;-71
2022/11/07 08:03:53;;;;;;;12.00;8.50;;;;;;;4.71;64.76;100423.09;5051326;28;20066;-69
2022/11/07 08:06:18;;;;;;;17.05;8.43;;;;;;;4.85;64.47;100423.28;5058669;28;20166;-71
2022/11/07 08:08:44;;;;;;;11.82;8.20;;;;;;;4.91;64.25;100415.94;5051804;28;20056;-70
2022/11/07 08:11:09;;;;;;;15.98;8.23;;;;;;;5.05;63.54;100412.63;5041757;28;20091;-70
2022/11/07 08:13:35;;;;;;;14.23;9.10;;;;;;;5.08;63.84;100412.53;5034590;28;20106;-70
2022/11/07 08:16:03;;;;;;;15.90;8.98;;;;;;;5.09;64.00;100414.25;5051889;28;20041;-69
2022/11/07 08:18:29;;;;;;;13.93;8.75;;;;;;;5.01;63.50;100402.19;5051826;28;20044;-68
2022/11/07 08:20:55;;;;;;;15.15;8.65;;;;;;;5.10;63.78;100413.31;5038542;28;20044;-76
2022/11/07 08:23:21;;;;;;;12.23;8.13;;;;;;;5.18;63.63;100416.44;5053165;28;20030;-65
2022/11/07 08:25:50;;;;;;;13.52;8.27;;;;;;;5.28;64.12;100408.88;5036369;28;20071;-66
2022/11/07 08:28:16;;;;;;;15.48;8.38;;;;;;;5.32;63.44;100408.66;5032307;28;20112;-65
2022/11/07 08:30:42;;;;;;;14.30;9.13;;;;;;;5.46;63.13;100404.44;5034450;28;20163;-73
2022/11/07 08:33:08;;;;;;;13.13;8.93;;;;;;;5.54;62.43;100409.38;5052216;28;20067;-62
2022/11/07 08:35:33;;;;;;;14.05;8.77;;;;;;;5.68;62.35;100414.88;5049588;28;20028;-63
2022/11/07 08:37:58;;;;;;;14.20;8.95;;;;;;;5.79;61.91;100416.09;5051758;28;20021;-63
2022/11/07 08:40:25;;;;;;;15.43;8.95;;;;;;;5.91;61.53;100414.63;5052571;28;20103;-62
2022/11/07 08:42:50;;;;;;;17.25;10.15;;;;;;;5.89;61.44;100418.22;5045130;28;20094;-63
2022/11/07 08:45:16;;;;;;;18.00;10.13;;;;;;;5.84;61.49;100412.28;5038454;28;20045;-61
2022/11/07 08:47:41;;;;;;;19.45;9.55;;;;;;;5.66;61.80;100394.63;5038691;28;20091;-62
2022/11/07 08:50:07;;;;;;;21.48;10.43;;;;;;;5.69;62.08;100402.44;5050020;28;20120;-58
2022/11/07 08:52:34;;;;;;;20.60;9.80;;;;;;;5.75;61.70;100415.38;5065012;28;20028;-61
2022/11/07 08:55:02;;;;;;;15.00;10.13;;;;;;;5.78;61.70;100411.72;5066496;28;20128;-62
2022/11/07 08:57:28;;;;;;;17.70;9.15;;;;;;;5.80;61.22;100418.69;5038881;28;20052;-60
2022/11/07 08:59:54;;;;;;;16.48;9.02;;;;;;;5.83;61.73;100412.34;5040497;28;20076;-61
2022/11/07 09:02:19;;;;;;;15.98;9.05;;;;;;;5.87;61.83;100409.47;5032181;28;20444;-62
2022/11/07 09:04:45;;;;;;;18.60;9.25;;;;;;;5.88;61.65;100403.19;5049823;28;20049;-63
2022/11/07 09:07:10;;;;;;;15.20;8.82;;;;;;;5.91;61.72;100409.28;5046204;28;20033;-61
2022/11/07 09:09:36;;;;;;;16.98;8.80;;;;;;;5.94;61.68;100404.69;5036154;28;20094;-65
2022/11/07 09:12:01;;;;;;;19.05;9.10;;;;;;;5.94;61.19;100402.03;5049274;28;20448;-61
2022/11/07 09:14:27;;;;;;;19.88;9.20;;;;;;;5.95;61.12;100405.53;5051332;28;20021;-62
2022/11/07 09:16:53;;;;;;;17.33;9.43;;;;;;;5.90;61.48;100400.44;5064884;28;20032;-62
2022/11/07 09:19:18;;;;;;;18.08;9.20;;;;;;;5.93;61.59;100410.06;5048591;28;20048;-62
2022/11/07 09:21:44;;;;;;;13.23;8.05;;;;;;;5.85;61.57;100406.03;5038403;28;20515;-63
2022/11/07 09:24:10;;;;;;;22.23;9.68;;;;;;;5.81;61.52;100401.81;5065333;28;20422;-62
2022/11/07 09:26:35;;;;;;;15.30;8.73;;;;;;;5.85;61.87;100407.81;5050941;28;20041;-62
2022/11/07 09:29:01;;;;;;;15.98;8.75;;;;;;;5.68;61.18;100374.13;5052143;28;20371;-61
2022/11/07 09:31:26;;;;;;;15.95;8.32;;;;;;;5.84;61.73;100406.97;5049994;28;20024;-61
2022/11/07 09:33:51;;;;;;;14.35;9.00;;;;;;;5.85;61.64;100410.47;5051948;28;20060;-61
2022/11/07 09:36:17;;;;;;;15.60;9.05;;;;;;;5.81;62.45;100393.84;5036695;28;20487;-61
2022/11/07 09:38:42;;;;;;;19.70;9.23;;;;;;;5.80;62.25;100402.75;5067287;28;20471;-63
2022/11/07 09:41:28;;;;;;;15.25;9.35;;;;;;;5.77;61.96;100402.03;5067177;28;20017;-62
2022/11/07 09:44:15;;;;;;;17.60;9.77;;;;;;;5.75;62.55;100376.41;5051294;28;20045;-67
2022/11/07 09:46:56;;;;;;;17.73;9.35;;;;;;;5.84;62.43;100399.00;5042911;28;20059;-65
2022/11/07 09:49:29;;;;;;;11.95;9.02;;;;;;;5.74;62.29;100389.75;5056142;28;20033;-66
2022/11/07 09:52:12;;;;;;;18.08;10.05;;;;;;;5.67;62.45;100391.03;5070967;28;20029;-67
2022/11/07 09:54:44;;;;;;;15.32;9.77;;;;;;;5.69;62.38;100387.34;5056032;28;20025;-67
2022/11/07 09:57:15;;;;;;;14.00;9.07;;;;;;;5.70;62.30;100393.50;5055711;28;20118;-65
2022/11/07 09:59:56;;;;;;;15.55;9.52;;;;;;;5.67;62.89;100388.38;5055573;28;20029;-67
2022/11/07 10:02:29;;;;;;;18.17;10.80;;;;;;;5.56;62.99;100388.91;5055878;28;20033;-65
2022/11/07 10:05:01;;;;;;;15.30;9.95;;;;;;;5.54;63.43;100399.59;5055485;28;20476;-66
2022/11/07 10:07:40;;;;;;;16.92;10.98;;;;;;;4.97;63.81;100314.84;5061456;28;20044;-66
2022/11/07 10:10:20;;;;;;;15.48;10.80;;;;;;;5.46;63.61;100397.34;5074471;28;20036;-66
2022/11/07 10:12:49;;;;;;;16.55;10.02;;;;;;;5.41;63.62;100387.88;5075559;28;20048;-66
2022/11/07 10:15:23;;;;;;;20.17;10.35;;;;;;;5.42;63.94;100384.28;5075692;28;20050;-66
2022/11/07 10:18:07;;;;;;;15.98;10.65;;;;;;;5.31;63.58;100385.72;5075433;28;20093;-66
2022/11/07 10:21:17;;;;;;;17.63;10.65;;;;;;;5.37;63.75;100388.97;5075914;28;20082;-65
2022/11/07 10:23:51;;;;;;;15.20;9.82;;;;;;;5.22;64.08;100372.88;5050534;28;20037;-65
2022/11/07 10:26:20;;;;;;;17.52;11.02;;;;;;;5.21;64.25;100383.59;5053981;28;20072;-66
2022/11/07 10:28:52;;;;;;;18.98;11.05;;;;;;;5.15;64.06;100384.72;5054264;28;20029;-66
2022/11/07 10:31:18;;;;;;;21.23;11.57;;;;;;;5.17;64.58;100380.22;5055114;28;20420;-66
2022/11/07 10:34:00;;;;;;;17.88;10.43;;;;;;;5.24;64.20;100371.00;5071019;28;20131;-69
2022/11/07 10:36:28;;;;;;;17.08;11.18;;;;;;;5.28;64.81;100372.56;5060774;28;20435;-66
2022/11/07 10:38:54;;;;;;;16.25;10.75;;;;;;;5.31;64.35;100375.09;5057686;28;20463;-67
2022/11/07 10:41:24;;;;;;;17.30;10.18;;;;;;;5.43;64.09;100370.06;5037949;28;20029;-68
2022/11/07 10:43:59;;;;;;;16.23;10.35;;;;;;;5.51;63.55;100369.69;5053792;28;20053;-66
2022/11/07 10:46:31;;;;;;;15.63;10.07;;;;;;;5.45;63.53;100357.56;5053839;28;20047;-66
2022/11/07 10:48:59;;;;;;;18.45;11.18;;;;;;;5.54;63.56;100366.88;5054982;28;20458;-67
2022/11/07 10:51:52;;;;;;;19.45;11.75;;;;;;;5.66;63.92;100371.53;5054160;28;20032;-66
2022/11/07 10:54:24;;;;;;;17.92;11.52;;;;;;;5.58;63.30;100374.63;5053906;28;20041;-67
2022/11/07 10:57:05;;;;;;;19.30;11.82;;;;;;;5.59;63.57;100365.72;5050261;28;20116;-66
2022/11/07 10:59:33;;;;;;;19.15;11.75;;;;;;;5.59;63.53;100381.66;5034351;28;20438;-67
2022/11/07 11:02:00;;;;;;;20.65;12.27;;;;;;;5.54;63.67;100364.22;5034801;28;20025;-71
2022/11/07 11:04:31;;;;;;;20.80;12.45;;;;;;;5.59;63.82;100376.34;5046139;28;20452;-66
2022/11/07 11:07:02;;;;;;;22.05;12.45;;;;;;;5.57;63.41;100378.22;5052719;28;20028;-65
2022/11/07 11:09:29;;;;;;;18.52;12.38;;;;;;;5.32;63.09;100349.38;5050206;28;20462;-65
2022/11/07 11:11:55;;;;;;;20.98;13.32;;;;;;;5.37;63.46;100365.94;5034199;28;20037;-64
2022/11/07 11:14:21;;;;;;;24.70;14.52;;;;;;;5.35;63.89;100366.97;5034829;28;20021;-66
2022/11/07 11:16:52;;;;;;;24.23;14.68;;;;;;;5.35;64.11;100356.34;5034482;28;20041;-66
2022/11/07 11:19:20;;;;;;;23.92;14.23;;;;;;;5.40;63.57;100360.47;5050095;28;20026;-65
2022/11/07 11:21:47;;;;;;;21.10;13.35;;;;;;;5.42;63.73;100369.19;5034282;28;20029;-67
2022/11/07 11:24:25;;;;;;;24.48;13.98;;;;;;;5.49;63.89;100368.91;5058262;28;20044;-65
2022/11/07 11:26:52;;;;;;;25.17;14.45;;;;;;;5.38;63.93;100372.13;5034490;28;20122;-64
2022/11/07 11:29:53;;;;;;;24.95;15.70;;;;;;;5.45;64.10;100370.84;5046818;28;20028;-65
2022/11/07 11:32:44;;;;;;;23.35;13.65;;;;;;;5.45;63.85;100357.56;5054076;28;20043;-68